Time;durP1;ratioP1;P1;durP2;ratioP2;P2;SDS_P1;SDS_P2;PMS_P1;PMS_P2;Temp;Humidity;BMP_temperature;BMP_pressure;BME280_temperature;BME280_humidity;BME280_pressure;Samples;Min_cycle;Max_cycle;Signal;HPM_P1;HPM_P2
2021/12/21 00:01:23;;;;;;;1.97;1.80;;;-1.00;98.20;;;;;;5006682;28;20984;-74
2021/12/21 00:03:50;;;;;;;2.07;1.87;;;-1.00;98.20;;;;;;5009411;28;20868;-73
2021/12/21 00:06:17;;;;;;;2.10;1.90;;;-1.00;98.20;;;;;;5008528;28;20496;-73
2021/12/21 00:08:44;;;;;;;2.10;1.90;;;-1.00;98.20;;;;;;5008753;28;20802;-74
2021/12/21 00:11:14;;;;;;;2.10;1.90;;;-1.00;98.20;;;;;;5009826;28;20520;-74
2021/12/21 00:13:56;;;;;;;2.07;1.90;;;-1.00;98.20;;;;;;5009372;28;20470;-74
2021/12/21 00:16:44;;;;;;;2.00;1.80;;;-1.10;98.20;;;;;;5009685;28;20855;-73
2021/12/21 00:19:26;;;;;;;2.10;1.90;;;-1.10;98.20;;;;;;5009141;28;21004;-73
2021/12/21 00:21:58;;;;;;;2.00;1.80;;;-1.10;98.20;;;;;;5006151;28;20464;-73
2021/12/21 00:24:32;;;;;;;2.10;1.90;;;-1.20;98.20;;;;;;5008241;28;20819;-73
2021/12/21 00:27:07;;;;;;;2.00;1.80;;;-1.20;98.20;;;;;;5007752;28;20476;-74
2021/12/21 00:29:35;;;;;;;2.10;1.90;;;-1.20;98.20;;;;;;5007795;28;20533;-74
2021/12/21 00:32:02;;;;;;;2.10;1.90;;;-1.20;98.20;;;;;;5008803;28;20460;-74
2021/12/21 00:34:31;;;;;;;2.10;1.90;;;-1.20;98.20;;;;;;5008341;28;20874;-73
2021/12/21 00:36:58;;;;;;;2.00;1.80;;;-1.20;98.20;;;;;;5006485;28;20482;-73
2021/12/21 00:39:27;;;;;;;2.00;1.80;;;-1.20;98.20;;;;;;5010350;28;20491;-74
2021/12/21 00:41:54;;;;;;;2.10;1.90;;;-1.20;98.20;;;;;;5006401;28;20530;-74
2021/12/21 00:44:22;;;;;;;2.10;1.90;;;-1.20;98.20;;;;;;5001524;28;20739;-74
2021/12/21 00:46:49;;;;;;;1.97;1.80;;;-1.30;98.20;;;;;;5008415;28;20464;-73
2021/12/21 00:49:17;;;;;;;2.00;1.80;;;-1.20;98.20;;;;;;5008140;28;20486;-74
2021/12/21 00:51:45;;;;;;;2.10;1.90;;;-1.30;98.20;;;;;;5006656;28;20483;-73
2021/12/21 00:54:13;;;;;;;2.10;1.90;;;-1.20;98.20;;;;;;5005109;28;20972;-73
2021/12/21 00:56:40;;;;;;;2.00;1.80;;;-1.30;98.20;;;;;;5006288;28;20838;-73
2021/12/21 00:59:08;;;;;;;2.00;1.80;;;-1.30;98.20;;;;;;5007721;28;20578;-74
2021/12/21 01:01:40;;;;;;;1.97;1.80;;;-1.30;98.20;;;;;;5006761;28;20483;-74
2021/12/21 01:04:12;;;;;;;2.10;1.90;;;-1.30;98.20;;;;;;5007178;28;20467;-74
2021/12/21 01:06:43;;;;;;;2.00;1.80;;;-1.30;98.20;;;;;;5005680;28;20563;-73
2021/12/21 01:09:19;;;;;;;2.00;1.80;;;-1.30;98.20;;;;;;5007087;28;20540;-74
2021/12/21 01:11:52;;;;;;;2.03;1.83;;;-1.30;98.20;;;;;;5006760;28;20843;-73
2021/12/21 01:14:52;;;;;;;2.00;1.80;;;-1.30;98.20;;;;;;5007738;28;20471;-74
2021/12/21 01:17:25;;;;;;;1.93;1.80;;;-1.30;98.20;;;;;;5008130;28;20479;-74
2021/12/21 01:20:05;;;;;;;2.20;2.00;;;-1.40;98.20;;;;;;5003753;28;20495;-74
2021/12/21 01:22:52;;;;;;;2.00;1.83;;;-1.40;98.20;;;;;;5006831;28;20475;-74
2021/12/21 01:25:28;;;;;;;2.00;1.80;;;-1.40;98.20;;;;;;5005309;28;20490;-74
2021/12/21 01:28:01;;;;;;;2.07;1.90;;;-1.50;98.20;;;;;;5005670;28;20530;-74
2021/12/21 01:30:39;;;;;;;2.10;1.90;;;-1.50;98.20;;;;;;5002416;28;20865;-74
2021/12/21 01:33:22;;;;;;;2.10;1.90;;;-1.50;98.20;;;;;;5008358;28;20475;-74
2021/12/21 01:35:52;;;;;;;2.10;1.90;;;-1.50;98.20;;;;;;5007690;28;20575;-75
2021/12/21 01:38:26;;;;;;;2.20;2.00;;;-1.50;98.20;;;;;;5005848;28;20475;-75
2021/12/21 01:40:59;;;;;;;2.10;1.90;;;-1.50;98.20;;;;;;5010020;28;20495;-75
2021/12/21 01:43:33;;;;;;;2.03;1.87;;;-1.60;98.20;;;;;;5007372;28;20452;-75
2021/12/21 01:51:31;;;;;;;2.10;1.90;;;-1.60;98.20;;;;;;5006855;28;20487;-75
2021/12/21 01:53:58;;;;;;;2.10;1.90;;;-1.60;98.20;;;;;;5007403;28;20478;-75
2021/12/21 01:56:25;;;;;;;2.10;1.90;;;-1.60;98.20;;;;;;5006640;28;20464;-75
2021/12/21 01:58:52;;;;;;;2.10;1.90;;;-1.60;98.20;;;;;;5007756;28;20964;-75
2021/12/21 02:01:22;;;;;;;2.10;1.90;;;-1.70;98.20;;;;;;5006436;28;20496;-74
2021/12/21 02:03:51;;;;;;;2.10;1.90;;;-1.70;98.20;;;;;;5008016;28;20472;-75
2021/12/21 02:06:19;;;;;;;2.00;1.80;;;-1.70;98.20;;;;;;5006053;28;20468;-74
2021/12/21 02:08:46;;;;;;;2.10;1.90;;;-1.70;98.20;;;;;;5005924;28;20472;-74
2021/12/21 02:11:13;;;;;;;2.10;1.90;;;-1.70;98.20;;;;;;5005183;28;20939;-75
2021/12/21 02:13:45;;;;;;;2.10;1.90;;;-1.70;98.20;;;;;;5008347;28;20466;-74
2021/12/21 02:16:13;;;;;;;2.20;2.00;;;-1.70;98.20;;;;;;4992726;28;20472;-75
2021/12/21 02:18:50;;;;;;;2.10;1.90;;;-1.80;98.20;;;;;;5006413;28;20472;-75
2021/12/21 02:21:26;;;;;;;2.20;2.00;;;-1.80;98.20;;;;;;5005372;28;20545;-75
2021/12/21 02:23:57;;;;;;;2.10;1.90;;;-1.80;98.20;;;;;;5003296;28;20689;-75
2021/12/21 02:26:47;;;;;;;2.10;1.90;;;-1.80;98.20;;;;;;5006863;28;20956;-75
2021/12/21 02:29:24;;;;;;;2.00;1.80;;;-1.80;98.20;;;;;;5010659;28;20951;-75
2021/12/21 02:31:53;;;;;;;1.97;1.80;;;-1.80;98.20;;;;;;5010019;28;20467;-75
2021/12/21 02:34:21;;;;;;;2.10;1.90;;;-1.80;98.20;;;;;;5011211;28;20464;-75
2021/12/21 02:36:54;;;;;;;1.93;1.80;;;-1.80;98.20;;;;;;5009562;28;20836;-75
2021/12/21 02:39:23;;;;;;;2.10;1.90;;;-1.80;98.20;;;;;;5010047;28;20548;-75
2021/12/21 02:41:50;;;;;;;2.07;1.87;;;-1.80;98.20;;;;;;5008858;28;20468;-75
2021/12/21 02:44:18;;;;;;;2.10;1.90;;;-1.80;98.20;;;;;;5006120;28;20562;-75
2021/12/21 02:46:45;;;;;;;2.20;2.00;;;-1.80;98.20;;;;;;5006585;28;20554;-75
2021/12/21 02:49:14;;;;;;;2.20;2.00;;;-1.80;98.20;;;;;;5006774;28;20468;-74
2021/12/21 02:51:43;;;;;;;2.10;1.90;;;-1.80;98.20;;;;;;5005218;28;20582;-75
2021/12/21 02:54:13;;;;;;;2.10;1.90;;;-1.90;98.20;;;;;;5009476;28;20504;-74
2021/12/21 02:56:40;;;;;;;2.30;2.10;;;-1.90;98.20;;;;;;5007162;28;20555;-75
2021/12/21 02:59:07;;;;;;;2.10;1.90;;;-1.90;98.20;;;;;;5009778;28;20460;-75
2021/12/21 03:01:35;;;;;;;2.10;1.90;;;-1.90;98.20;;;;;;5009023;28;21052;-75
2021/12/21 03:04:03;;;;;;;2.10;1.90;;;-1.90;98.20;;;;;;5010101;28;20474;-75
2021/12/21 03:09:36;;;;;;;2.20;2.00;;;-1.90;98.20;;;;;;5011838;28;20455;-75
2021/12/21 03:12:12;;;;;;;2.10;1.90;;;-1.80;98.20;;;;;;5006443;28;20476;-75
2021/12/21 03:14:39;;;;;;;2.10;1.90;;;-1.80;98.20;;;;;;5009988;28;20826;-74
2021/12/21 03:17:07;;;;;;;2.30;2.10;;;-1.80;98.20;;;;;;5009867;28;20475;-75
2021/12/21 03:19:34;;;;;;;2.10;1.90;;;-1.80;98.20;;;;;;5009919;28;20484;-75
2021/12/21 03:22:01;;;;;;;2.20;2.00;;;-1.80;98.20;;;;;;5008592;28;20468;-75
2021/12/21 03:24:29;;;;;;;2.10;1.90;;;-1.80;98.20;;;;;;5009317;28;20472;-75
2021/12/21 03:26:56;;;;;;;2.10;1.90;;;-1.90;98.20;;;;;;5008509;28;20883;-75
2021/12/21 03:29:24;;;;;;;2.10;1.90;;;-1.90;98.20;;;;;;5010005;28;20825;-75
2021/12/21 03:31:51;;;;;;;2.00;1.80;;;-1.90;98.20;;;;;;5008830;28;20460;-75
2021/12/21 03:34:18;;;;;;;2.00;1.83;;;-1.90;98.20;;;;;;5008564;28;20464;-75
2021/12/21 03:36:45;;;;;;;2.10;1.90;;;-1.90;98.20;;;;;;5007359;28;20503;-74
2021/12/21 03:39:17;;;;;;;2.10;1.90;;;-1.90;98.20;;;;;;5011887;28;20471;-75
2021/12/21 03:41:49;;;;;;;2.10;1.90;;;-1.90;98.20;;;;;;5003621;28;20492;-75
2021/12/21 03:44:18;;;;;;;2.10;1.90;;;-1.90;98.20;;;;;;5008540;28;20495;-75
2021/12/21 03:46:48;;;;;;;2.10;1.90;;;-2.00;98.20;;;;;;5006798;28;20541;-76
2021/12/21 03:52:18;;;;;;;2.10;1.90;;;-2.00;98.20;;;;;;5007690;28;20586;-75
2021/12/21 03:54:48;;;;;;;2.07;1.87;;;-2.00;98.20;;;;;;5006015;28;20468;-75
2021/12/21 03:57:18;;;;;;;2.10;1.90;;;-2.00;98.20;;;;;;5005603;28;20466;-75
2021/12/21 03:59:48;;;;;;;2.10;1.90;;;-2.10;98.20;;;;;;5009461;28;20486;-75
2021/12/21 04:02:16;;;;;;;2.23;2.03;;;-2.10;98.20;;;;;;5008127;28;20480;-75
2021/12/21 04:04:44;;;;;;;1.90;1.80;;;-2.10;98.20;;;;;;5008300;28;20555;-75
2021/12/21 04:07:12;;;;;;;2.20;2.00;;;-2.10;98.20;;;;;;5008275;28;20511;-75
2021/12/21 04:09:39;;;;;;;2.10;1.90;;;-2.10;98.20;;;;;;5008999;28;21040;-75
2021/12/21 04:12:06;;;;;;;2.10;1.90;;;-2.10;98.20;;;;;;5007621;28;20559;-75
2021/12/21 04:14:36;;;;;;;2.20;2.00;;;-2.10;98.20;;;;;;5007635;28;20475;-75
2021/12/21 04:17:03;;;;;;;2.10;1.90;;;-2.10;98.20;;;;;;5005643;28;20472;-75
2021/12/21 04:19:30;;;;;;;2.10;1.90;;;-2.20;98.20;;;;;;5007956;28;20523;-75
2021/12/21 04:21:57;;;;;;;2.20;2.00;;;-2.20;98.20;;;;;;5007473;28;20798;-75
2021/12/21 04:24:24;;;;;;;2.10;1.90;;;-2.20;98.20;;;;;;5007746;28;20468;-75
2021/12/21 04:26:51;;;;;;;2.10;1.90;;;-2.20;98.20;;;;;;5007371;28;20500;-75
2021/12/21 04:29:18;;;;;;;2.13;1.93;;;-2.20;98.20;;;;;;5008771;28;21008;-75
2021/12/21 04:31:48;;;;;;;2.10;1.90;;;-2.20;98.20;;;;;;5007733;28;20842;-75
2021/12/21 04:34:15;;;;;;;2.00;1.90;;;-2.20;98.20;;;;;;5007468;28;20570;-75
2021/12/21 04:36:42;;;;;;;2.20;2.00;;;-2.20;98.20;;;;;;5007812;28;20518;-75
2021/12/21 04:39:20;;;;;;;2.20;2.00;;;-2.20;98.20;;;;;;5008366;28;20545;-75
2021/12/21 04:41:47;;;;;;;2.10;1.90;;;-2.20;98.20;;;;;;5007468;28;20835;-75
2021/12/21 04:44:14;;;;;;;2.13;1.93;;;-2.30;98.20;;;;;;5007526;28;20849;-75
2021/12/21 04:46:41;;;;;;;2.30;2.10;;;-2.30;98.20;;;;;;5007609;28;20456;-74
2021/12/21 04:49:09;;;;;;;2.10;1.90;;;-2.30;98.20;;;;;;5007559;28;20471;-75
2021/12/21 04:51:36;;;;;;;2.20;2.00;;;-2.30;98.20;;;;;;5007593;28;20484;-75
2021/12/21 04:54:03;;;;;;;2.20;2.00;;;-2.30;98.20;;;;;;5007439;28;20475;-76
2021/12/21 04:56:30;;;;;;;2.10;1.90;;;-2.30;98.20;;;;;;5004825;28;20482;-75
2021/12/21 04:58:57;;;;;;;2.27;2.07;;;-2.40;98.20;;;;;;5007732;28;20897;-76
2021/12/21 05:01:24;;;;;;;2.20;2.00;;;-2.40;98.20;;;;;;5006280;28;20496;-76
2021/12/21 05:03:51;;;;;;;2.10;1.90;;;-2.40;98.20;;;;;;5006892;28;20470;-77
2021/12/21 05:06:20;;;;;;;2.20;2.00;;;-2.40;98.20;;;;;;5006306;28;20476;-75
2021/12/21 05:09:02;;;;;;;2.10;1.90;;;-2.40;98.20;;;;;;5006189;28;20644;-75
2021/12/21 05:11:33;;;;;;;2.23;2.03;;;-2.40;98.20;;;;;;5006208;28;20479;-75
2021/12/21 05:14:00;;;;;;;2.37;2.17;;;-2.40;98.20;;;;;;5006670;28;20468;-76
2021/12/21 05:16:27;;;;;;;2.10;1.90;;;-2.50;98.20;;;;;;5007443;28;20499;-75
2021/12/21 05:18:53;;;;;;;2.10;1.90;;;-2.50;98.20;;;;;;5008066;28;21008;-76
2021/12/21 05:21:22;;;;;;;2.10;1.90;;;-2.50;98.20;;;;;;5007297;28;20662;-76
2021/12/21 05:23:49;;;;;;;2.10;1.90;;;-2.50;98.20;;;;;;5007980;28;20885;-75
2021/12/21 05:26:16;;;;;;;2.10;1.90;;;-2.50;98.20;;;;;;5006145;28;20567;-77
2021/12/21 05:28:50;;;;;;;2.10;1.90;;;-2.50;98.20;;;;;;5006451;28;20470;-75
2021/12/21 05:31:17;;;;;;;2.20;2.00;;;-2.60;98.20;;;;;;5005313;28;20488;-76
2021/12/21 05:33:45;;;;;;;2.10;1.90;;;-2.60;98.20;;;;;;5007287;28;20468;-75
2021/12/21 05:36:12;;;;;;;2.10;1.90;;;-2.60;98.20;;;;;;5006216;28;20476;-76
2021/12/21 05:38:47;;;;;;;2.20;2.00;;;-2.60;98.20;;;;;;5007517;28;20519;-75
2021/12/21 05:41:22;;;;;;;2.10;1.90;;;-2.60;98.20;;;;;;5007467;28;20495;-76
2021/12/21 05:43:49;;;;;;;2.10;1.90;;;-2.60;98.20;;;;;;5006476;28;20468;-76
2021/12/21 05:46:16;;;;;;;2.10;1.90;;;-2.60;98.20;;;;;;5006359;28;20470;-75
2021/12/21 05:48:45;;;;;;;2.17;1.97;;;-2.60;98.20;;;;;;5007730;28;20505;-75
2021/12/21 05:51:12;;;;;;;2.40;2.20;;;-2.60;98.20;;;;;;5006526;28;20538;-76
2021/12/21 05:53:40;;;;;;;2.30;2.10;;;-2.60;98.20;;;;;;5006633;28;20507;-75
2021/12/21 05:56:07;;;;;;;2.20;2.00;;;-2.50;98.20;;;;;;5004275;28;20879;-76
2021/12/21 05:58:34;;;;;;;2.10;1.90;;;-2.50;98.20;;;;;;5006945;28;20459;-76
2021/12/21 06:01:02;;;;;;;2.10;1.90;;;-2.50;98.20;;;;;;5008826;28;20952;-75
2021/12/21 06:03:29;;;;;;;2.10;1.90;;;-2.50;98.20;;;;;;5010659;28;20478;-76
2021/12/21 06:05:56;;;;;;;2.30;2.10;;;-2.50;98.20;;;;;;5009789;28;20502;-76
2021/12/21 06:08:24;;;;;;;2.20;2.00;;;-2.50;98.20;;;;;;5010512;28;20465;-75
2021/12/21 06:10:55;;;;;;;2.20;2.00;;;-2.60;98.20;;;;;;5012613;28;20550;-76
2021/12/21 06:16:27;;;;;;;2.30;2.10;;;-2.60;98.20;;;;;;5000592;28;20565;-75
2021/12/21 06:27:25;;;;;;;2.10;1.90;;;-2.60;98.20;;;;;;4940752;29;20531;-76
2021/12/21 06:29:52;;;;;;;2.20;2.00;;;-2.70;98.20;;;;;;4946617;29;20483;-76
2021/12/21 06:32:20;;;;;;;2.20;2.00;;;-2.70;98.20;;;;;;4976852;28;20475;-76
2021/12/21 06:34:47;;;;;;;2.07;1.87;;;-2.80;98.20;;;;;;5005887;28;20942;-76
2021/12/21 06:37:14;;;;;;;2.13;1.93;;;-2.80;98.20;;;;;;5012129;28;20492;-76
2021/12/21 06:39:41;;;;;;;2.27;2.07;;;-2.80;98.20;;;;;;5010050;28;20463;-75
2021/12/21 06:42:10;;;;;;;2.20;2.00;;;-2.80;98.20;;;;;;5004230;28;20488;-76
2021/12/21 06:44:42;;;;;;;2.10;1.90;;;-2.80;98.20;;;;;;5007794;28;20603;-76
2021/12/21 06:52:39;;;;;;;2.27;2.07;;;-2.70;98.20;;;;;;5008815;28;20451;-75
2021/12/21 06:55:06;;;;;;;2.20;2.00;;;-2.70;98.20;;;;;;5009789;28;20955;-75
2021/12/21 06:57:34;;;;;;;2.20;2.00;;;-2.70;98.20;;;;;;5008561;28;20956;-76
2021/12/21 07:00:03;;;;;;;2.27;2.07;;;-2.80;98.20;;;;;;5010578;28;21031;-77
2021/12/21 07:02:30;;;;;;;2.40;2.20;;;-2.80;98.20;;;;;;5009204;28;20487;-76
2021/12/21 07:04:58;;;;;;;2.10;1.90;;;-2.80;98.20;;;;;;5004952;28;20526;-76
2021/12/21 07:07:26;;;;;;;3.90;3.70;;;-2.80;98.20;;;;;;5008565;28;20464;-75
2021/12/21 07:09:59;;;;;;;2.20;2.00;;;-2.80;98.20;;;;;;5009573;28;20550;-75
2021/12/21 07:17:58;;;;;;;2.07;1.87;;;-2.80;98.20;;;;;;5008147;28;21066;-76
2021/12/21 07:18:14;;;;;;;2.20;2.00;;;-2.90;98.20;;;;;;5010742;28;20594;-76
2021/12/21 07:20:41;;;;;;;2.20;2.00;;;-2.90;98.20;;;;;;5006615;28;20507;-75
2021/12/21 07:23:08;;;;;;;2.50;2.30;;;-2.90;98.20;;;;;;5009438;28;20483;-75
2021/12/21 07:25:35;;;;;;;2.10;1.90;;;-2.90;98.20;;;;;;5008940;28;20496;-75
2021/12/21 07:28:02;;;;;;;2.10;1.90;;;-2.90;98.20;;;;;;5009081;28;20534;-75
2021/12/21 07:30:31;;;;;;;2.20;2.00;;;-2.90;98.20;;;;;;5009068;28;20868;-76
2021/12/21 07:32:58;;;;;;;2.20;2.00;;;-2.80;98.20;;;;;;5009396;28;20467;-74
2021/12/21 07:35:25;;;;;;;2.10;1.90;;;-2.80;98.20;;;;;;5008841;28;20464;-74
2021/12/21 07:37:52;;;;;;;2.17;1.97;;;-2.80;98.20;;;;;;5008722;28;20534;-74
2021/12/21 07:40:20;;;;;;;2.50;2.30;;;-2.80;98.20;;;;;;5009340;28;20491;-74
2021/12/21 07:42:47;;;;;;;2.20;2.00;;;-2.80;98.20;;;;;;5005643;28;20586;-75
2021/12/21 07:45:15;;;;;;;2.10;1.90;;;-2.80;98.20;;;;;;5007328;28;20472;-73
2021/12/21 07:47:43;;;;;;;2.20;2.00;;;-2.80;98.20;;;;;;5007725;28;20483;-74
2021/12/21 07:50:12;;;;;;;2.20;2.00;;;-2.80;98.20;;;;;;5008764;28;20546;-74
2021/12/21 07:52:40;;;;;;;2.10;1.90;;;-2.80;98.20;;;;;;5008871;28;20491;-74
2021/12/21 07:55:07;;;;;;;2.20;2.00;;;-2.80;98.20;;;;;;5005472;28;20473;-75
2021/12/21 07:57:34;;;;;;;2.10;1.90;;;-2.80;98.20;;;;;;5008208;28;20468;-74
2021/12/21 08:00:04;;;;;;;2.20;2.00;;;-2.70;98.20;;;;;;5008711;28;20554;-75
2021/12/21 08:02:32;;;;;;;2.10;1.90;;;-2.70;98.20;;;;;;5006833;28;20820;-74
2021/12/21 08:05:04;;;;;;;2.10;1.90;;;-2.70;98.20;;;;;;5007690;28;20827;-74
2021/12/21 08:07:35;;;;;;;2.00;1.90;;;-2.60;98.20;;;;;;5007756;28;20457;-73
2021/12/21 08:10:17;;;;;;;2.10;1.90;;;-2.60;98.20;;;;;;5007806;28;21024;-74
2021/12/21 08:12:45;;;;;;;2.17;1.97;;;-2.60;98.20;;;;;;5007538;28;20467;-74
2021/12/21 08:15:12;;;;;;;2.00;1.87;;;-2.60;98.20;;;;;;5007273;28;20464;-74
2021/12/21 08:17:39;;;;;;;2.10;1.90;;;-2.50;98.20;;;;;;5007442;28;20452;-74
2021/12/21 08:20:08;;;;;;;2.07;1.90;;;-2.50;98.20;;;;;;5008385;28;20567;-75
2021/12/21 08:22:35;;;;;;;2.10;1.90;;;-2.40;98.20;;;;;;5004268;28;20853;-75
2021/12/21 08:25:02;;;;;;;2.20;2.00;;;-2.40;98.20;;;;;;5005979;28;20480;-74
2021/12/21 08:27:29;;;;;;;2.10;1.90;;;-2.30;98.20;;;;;;5005231;28;20465;-74
2021/12/21 08:29:56;;;;;;;2.10;1.90;;;-2.30;98.20;;;;;;5008596;28;20479;-74
2021/12/21 08:32:23;;;;;;;2.10;1.90;;;-2.30;98.20;;;;;;5006372;28;20468;-74
2021/12/21 08:34:50;;;;;;;2.10;1.90;;;-2.20;98.20;;;;;;5007835;28;20465;-74
2021/12/21 08:37:18;;;;;;;1.90;1.80;;;-2.20;98.20;;;;;;5007634;28;20558;-74
2021/12/21 08:39:45;;;;;;;2.10;1.90;;;-2.10;98.20;;;;;;5008808;28;20479;-74
2021/12/21 08:42:15;;;;;;;2.20;2.00;;;-2.00;98.20;;;;;;5007163;28;20869;-74
2021/12/21 08:44:45;;;;;;;2.10;1.90;;;-2.00;98.20;;;;;;5008219;28;20538;-74
2021/12/21 08:47:12;;;;;;;2.10;1.90;;;-1.90;98.20;;;;;;5007288;28;20468;-74
2021/12/21 08:49:39;;;;;;;2.20;2.00;;;-1.80;98.20;;;;;;5008386;28;20498;-74
2021/12/21 08:52:07;;;;;;;2.10;1.90;;;-1.70;98.20;;;;;;5013834;28;20468;-74
2021/12/21 08:54:36;;;;;;;2.10;1.90;;;-1.60;98.20;;;;;;5007356;28;20491;-74
2021/12/21 08:57:03;;;;;;;1.90;1.80;;;-1.50;98.20;;;;;;5005228;28;20944;-74
2021/12/21 08:59:32;;;;;;;1.97;1.80;;;-1.40;98.20;;;;;;5008250;28;20475;-74
2021/12/21 09:01:59;;;;;;;2.10;1.90;;;-1.20;98.20;;;;;;5004944;28;20742;-74
2021/12/21 09:04:27;;;;;;;2.20;2.00;;;-1.10;98.20;;;;;;5007027;28;20486;-73
2021/12/21 09:06:55;;;;;;;2.10;1.90;;;-1.10;98.20;;;;;;5007522;28;20460;-74
2021/12/21 09:09:22;;;;;;;2.10;1.90;;;-1.00;98.20;;;;;;5008651;28;20953;-74
2021/12/21 09:11:51;;;;;;;1.93;1.77;;;-1.00;98.20;;;;;;5007366;28;20869;-74
2021/12/21 09:14:18;;;;;;;2.00;1.80;;;-1.00;98.20;;;;;;5006933;28;20469;-75
2021/12/21 09:16:45;;;;;;;2.53;2.33;;;-0.90;98.20;;;;;;5007819;28;20470;-74
2021/12/21 09:19:13;;;;;;;2.10;1.90;;;-1.00;98.20;;;;;;5010321;28;20557;-75
2021/12/21 09:21:40;;;;;;;2.00;1.80;;;-1.00;98.20;;;;;;5009090;28;20985;-74
2021/12/21 09:24:07;;;;;;;1.93;1.80;;;-1.00;98.20;;;;;;5007114;28;20464;-75
2021/12/21 09:26:35;;;;;;;2.00;1.80;;;-1.00;98.20;;;;;;5007004;28;20584;-75
2021/12/21 09:29:06;;;;;;;2.00;1.80;;;-1.00;98.20;;;;;;5006795;28;20466;-75
2021/12/21 09:31:33;;;;;;;1.97;1.80;;;-1.00;98.20;;;;;;5006787;28;20484;-75
2021/12/21 09:34:00;;;;;;;2.00;1.80;;;-1.10;98.20;;;;;;5007363;28;21052;-75
2021/12/21 09:36:29;;;;;;;2.10;1.90;;;-1.00;98.20;;;;;;5009894;28;20519;-75
2021/12/21 09:38:56;;;;;;;2.10;1.90;;;-1.10;98.20;;;;;;5011278;28;20519;-74
2021/12/21 09:41:24;;;;;;;2.10;1.90;;;-1.10;98.20;;;;;;5002424;28;20566;-75
2021/12/21 09:43:52;;;;;;;2.00;1.80;;;-1.10;98.20;;;;;;5009110;28;20456;-74
2021/12/21 09:46:20;;;;;;;2.00;1.80;;;-1.00;98.20;;;;;;5011079;28;20482;-76
2021/12/21 09:48:48;;;;;;;2.00;1.80;;;-1.00;98.20;;;;;;5002429;28;20456;-74
2021/12/21 09:51:15;;;;;;;1.93;1.80;;;-1.00;98.20;;;;;;5007067;28;20568;-74
2021/12/21 09:53:44;;;;;;;1.97;1.77;;;-0.90;98.20;;;;;;5009625;28;20464;-74
2021/12/21 09:56:12;;;;;;;1.87;1.70;;;-0.90;98.20;;;;;;5003829;28;20502;-74
2021/12/21 09:58:40;;;;;;;2.00;1.80;;;-0.80;98.20;;;;;;5010369;28;20460;-74
2021/12/21 10:01:07;;;;;;;2.00;1.80;;;-0.80;98.20;;;;;;5011969;28;20507;-74
2021/12/21 10:03:37;;;;;;;2.00;1.80;;;-0.70;98.20;;;;;;5010926;28;21028;-74
2021/12/21 10:06:07;;;;;;;1.80;1.70;;;-0.70;98.20;;;;;;5009213;28;20822;-73
2021/12/21 10:08:35;;;;;;;1.93;1.80;;;-0.60;98.20;;;;;;5000868;28;20560;-74
2021/12/21 10:11:04;;;;;;;1.87;1.70;;;-0.60;98.20;;;;;;5002904;28;20491;-74
2021/12/21 10:13:35;;;;;;;2.00;1.80;;;-0.60;98.20;;;;;;5006934;28;20460;-72
2021/12/21 10:16:04;;;;;;;2.00;1.80;;;-0.60;98.20;;;;;;5009173;28;20468;-73
2021/12/21 10:18:33;;;;;;;2.00;1.80;;;-0.50;98.20;;;;;;5007890;28;20476;-73
2021/12/21 10:21:03;;;;;;;2.00;1.80;;;-0.50;98.20;;;;;;5005081;28;20939;-72
2021/12/21 10:23:32;;;;;;;1.97;1.80;;;-0.50;98.20;;;;;;5006163;28;21054;-73
2021/12/21 10:26:02;;;;;;;1.97;1.80;;;-0.50;98.20;;;;;;5005538;28;20495;-73
2021/12/21 10:28:32;;;;;;;1.90;1.70;;;-0.40;98.20;;;;;;5005926;28;20552;-72
2021/12/21 10:31:01;;;;;;;2.00;1.80;;;-0.40;98.20;;;;;;5003577;28;20853;-73
2021/12/21 10:33:29;;;;;;;1.93;1.80;;;-0.40;98.20;;;;;;5006959;28;20467;-72
2021/12/21 10:35:57;;;;;;;1.80;1.70;;;-0.30;98.20;;;;;;5006214;28;20554;-73
2021/12/21 10:38:32;;;;;;;2.00;1.80;;;-0.30;98.20;;;;;;5006224;28;20573;-73
2021/12/21 10:41:06;;;;;;;1.80;1.70;;;-0.20;98.20;;;;;;5008624;28;20706;-73
2021/12/21 10:43:33;;;;;;;1.97;1.80;;;-0.20;98.20;;;;;;5004181;28;20484;-73
2021/12/21 10:46:01;;;;;;;2.00;1.80;;;-0.10;98.20;;;;;;5004989;28;20465;-74
2021/12/21 10:48:30;;;;;;;1.97;1.80;;;-0.10;98.20;;;;;;5006348;28;20468;-74
2021/12/21 10:50:57;;;;;;;1.97;1.80;;;0.00;98.20;;;;;;5004007;28;20517;-73
2021/12/21 10:53:27;;;;;;;2.00;1.80;;;0.00;98.20;;;;;;5006183;28;20476;-74
2021/12/21 10:56:06;;;;;;;1.73;1.63;;;0.10;98.20;;;;;;5002534;28;20460;-73
2021/12/21 10:58:38;;;;;;;2.00;1.80;;;0.10;98.20;;;;;;5007604;28;20570;-73
2021/12/21 11:01:11;;;;;;;2.00;1.80;;;0.10;98.20;;;;;;5004533;28;20800;-74
2021/12/21 11:03:46;;;;;;;2.20;2.00;;;0.20;98.20;;;;;;5004928;28;20512;-73
2021/12/21 11:06:15;;;;;;;2.00;1.80;;;0.20;98.20;;;;;;5004401;28;20772;-73
2021/12/21 11:08:46;;;;;;;1.93;1.73;;;0.20;98.20;;;;;;5005517;28;20551;-73
2021/12/21 11:11:29;;;;;;;1.83;1.70;;;0.30;98.20;;;;;;5007205;28;20941;-73
2021/12/21 11:14:05;;;;;;;1.83;1.70;;;0.30;98.20;;;;;;5005983;28;20460;-73
2021/12/21 11:16:42;;;;;;;2.00;1.80;;;0.40;98.20;;;;;;5006222;28;21042;-74
2021/12/21 11:19:10;;;;;;;1.70;1.60;;;0.50;98.20;;;;;;5006161;28;21086;-74
2021/12/21 11:21:37;;;;;;;1.90;1.70;;;0.50;98.20;;;;;;4980499;28;20496;-73
2021/12/21 11:24:07;;;;;;;1.73;1.63;;;0.60;98.20;;;;;;4992425;28;20491;-73
2021/12/21 11:26:37;;;;;;;1.83;1.70;;;0.60;98.20;;;;;;4975852;28;20504;-73
2021/12/21 11:29:06;;;;;;;2.00;1.80;;;0.60;98.20;;;;;;4988827;28;20469;-73
2021/12/21 11:31:37;;;;;;;1.83;1.70;;;0.70;98.20;;;;;;4977836;28;20886;-73
2021/12/21 11:34:08;;;;;;;1.77;1.63;;;0.70;98.20;;;;;;4989814;28;20842;-74
2021/12/21 11:39:20;;;;;;;1.80;1.70;;;0.70;98.20;;;;;;4989680;28;20457;-73
2021/12/21 11:41:50;;;;;;;1.70;1.60;;;0.80;98.20;;;;;;4976541;28;20489;-74
2021/12/21 11:44:25;;;;;;;1.90;1.70;;;0.80;98.20;;;;;;4985078;28;21096;-74
2021/12/21 11:46:55;;;;;;;2.20;2.00;;;0.80;98.20;;;;;;4980173;28;21099;-74
2021/12/21 11:49:32;;;;;;;2.00;1.80;;;0.80;98.20;;;;;;4985620;28;20981;-73
2021/12/21 11:52:11;;;;;;;1.80;1.70;;;0.80;98.20;;;;;;4978623;28;20817;-72
2021/12/21 11:54:47;;;;;;;1.80;1.70;;;0.90;98.20;;;;;;4983668;28;21042;-72
2021/12/21 11:57:18;;;;;;;1.80;1.70;;;0.90;98.20;;;;;;4984024;28;20484;-72
2021/12/21 11:59:46;;;;;;;1.83;1.70;;;1.00;98.20;;;;;;4985210;28;20839;-72
2021/12/21 12:02:14;;;;;;;2.00;1.80;;;1.10;98.20;;;;;;4980656;28;20511;-72
2021/12/21 12:04:41;;;;;;;1.70;1.60;;;1.10;98.20;;;;;;4984287;28;20465;-73
2021/12/21 12:07:19;;;;;;;1.70;1.60;;;1.20;98.20;;;;;;4980644;28;21200;-72
2021/12/21 12:09:47;;;;;;;1.70;1.60;;;1.20;98.20;;;;;;4985516;28;20551;-73
2021/12/21 12:12:18;;;;;;;1.70;1.60;;;1.20;98.20;;;;;;4953942;28;20897;-73
2021/12/21 12:14:47;;;;;;;1.80;1.70;;;1.30;98.20;;;;;;4964149;28;20470;-73
2021/12/21 12:17:17;;;;;;;1.80;1.70;;;1.30;98.20;;;;;;4981978;28;20480;-72
2021/12/21 12:19:53;;;;;;;1.70;1.60;;;1.40;98.20;;;;;;4989411;28;21102;-70
2021/12/21 12:22:24;;;;;;;1.70;1.60;;;1.40;98.20;;;;;;4982840;28;20518;-71
2021/12/21 12:24:57;;;;;;;1.70;1.60;;;1.40;98.20;;;;;;4986514;28;20556;-71
2021/12/21 12:27:29;;;;;;;1.70;1.60;;;1.50;98.20;;;;;;4983093;28;21983;-71
2021/12/21 12:29:58;;;;;;;1.73;1.63;;;1.60;98.20;;;;;;4988077;28;20495;-74
2021/12/21 12:32:35;;;;;;;1.70;1.60;;;1.70;98.20;;;;;;4984163;28;20966;-71
2021/12/21 12:35:04;;;;;;;1.80;1.70;;;1.70;98.20;;;;;;4983559;28;20464;-72
2021/12/21 12:37:32;;;;;;;1.70;1.60;;;1.70;98.20;;;;;;4987262;28;20519;-72
2021/12/21 12:40:06;;;;;;;1.80;1.70;;;1.80;98.20;;;;;;4985281;28;20492;-72
2021/12/21 12:42:35;;;;;;;1.70;1.60;;;1.90;98.20;;;;;;4980691;28;20488;-72
2021/12/21 12:45:10;;;;;;;1.70;1.60;;;2.00;98.20;;;;;;4986025;28;20461;-72
2021/12/21 12:47:39;;;;;;;1.70;1.50;;;2.10;98.20;;;;;;4985113;28;20494;-71
2021/12/21 12:50:16;;;;;;;1.80;1.70;;;2.20;98.20;;;;;;4984773;28;20495;-71
2021/12/21 12:52:52;;;;;;;1.77;1.67;;;2.40;98.20;;;;;;4986956;28;20488;-70
2021/12/21 12:55:19;;;;;;;3.10;2.90;;;2.70;98.20;;;;;;4981134;28;20467;-71
2021/12/21 12:57:57;;;;;;;1.70;1.60;;;2.90;98.20;;;;;;4979080;28;20499;-71
2021/12/21 13:00:27;;;;;;;1.73;1.63;;;3.10;98.20;;;;;;4981334;28;20485;-70
2021/12/21 13:02:57;;;;;;;1.70;1.50;;;3.30;98.20;;;;;;4986155;28;20566;-72
2021/12/21 13:05:35;;;;;;;1.70;1.50;;;3.50;98.20;;;;;;4985551;28;20807;-70
2021/12/21 13:08:10;;;;;;;1.70;1.60;;;3.70;98.20;;;;;;4984368;28;21278;-70
2021/12/21 13:10:38;;;;;;;1.70;1.53;;;3.90;98.20;;;;;;4980171;28;20575;-70
2021/12/21 13:13:07;;;;;;;1.70;1.60;;;4.00;98.20;;;;;;4979560;28;20912;-71
2021/12/21 13:15:36;;;;;;;1.70;1.50;;;4.00;98.20;;;;;;4980710;28;21005;-69
2021/12/21 13:18:06;;;;;;;1.70;1.50;;;4.00;98.20;;;;;;4985602;28;20502;-71
2021/12/21 13:20:33;;;;;;;1.70;1.40;;;4.00;98.20;;;;;;4989803;28;21044;-71
2021/12/21 13:23:10;;;;;;;1.70;1.50;;;4.00;98.20;;;;;;4982812;28;20491;-71
2021/12/21 13:25:37;;;;;;;1.70;1.43;;;4.00;98.20;;;;;;4982664;28;20471;-69
2021/12/21 13:28:14;;;;;;;1.70;1.50;;;3.90;98.00;;;;;;4984229;28;21150;-70
2021/12/21 13:30:47;;;;;;;1.67;1.50;;;3.80;98.20;;;;;;4982677;28;20578;-71
2021/12/21 13:33:22;;;;;;;1.70;1.50;;;3.70;98.20;;;;;;4968919;28;20531;-71
2021/12/21 13:35:49;;;;;;;1.70;1.40;;;3.60;98.20;;;;;;4970172;28;20814;-71